Messwerte Minna

Temperatur

Temperatur
°C
1593633600 21.00 21.00 28
1593637200 22.00 22.00 26
1593640800 23.00 23.00 26
1593644400 0.00 0.00 26
1593648000 1.00 1.00 25
1593651600 2.00 2.00 25
1593655200 3.00 3.00 25
1593658800 4.00 4.00 25
1593662400 5.00 5.00 25
1593666000 6.00 6.00
1593669600 7.00 7.00 25
1593673200 8.00 8.00 26
1593676800 9.00 9.00 27
1593680400 10.00 10.00
1593684000 11.00 11.00 29
1593687600 12.00 12.00 30
1593691200 13.00 13.00
1593694800 14.00 14.00 31
1593698400 15.00 15.00 31
1593702000 16.00 16.00
1593705600 17.00 17.00 33
1593709200 18.00 18.00 32
1593712800 19.00 19.00
1593716400 20.00 20.00 29

Aktuellste Messwerte

Wettercharakter
Wetter: vereinzelte Gewitter
Temperatur
29 °C
Feuchtigkeit
75 %
Wind
15 km/hWindrichtung: Südwest
Luftdruck
1010 hPa
Messzeit: 2. Juli 2020, 20.00Datenquelle: METAR

Weitere Messstationen in der Nähe

Messstation Temperatur Entfernung
Abuja - 105 km
Kano - 347 km
Maradi - 432 km
Lagos 27 °C 488 km

Wind

Windrichtung Böen Mittelwind
° km/h km/h
1593633600 21.00 20.00 - 21.00 140° 15
1593637200 22.00 21.00 - 22.00 160° 10
1593640800 23.00 22.00 - 23.00 120° 10
1593644400 0.00 23.00 - 0.00 90° 10
1593648000 1.00 0.00 - 1.00 110° 15
1593651600 2.00 1.00 - 2.00 100° 15
1593655200 3.00 2.00 - 3.00 100° 15
1593658800 4.00 3.00 - 4.00 280° 10
1593662400 5.00 4.00 - 5.00 300° 10
1593666000 6.00 5.00 - 6.00
1593669600 7.00 6.00 - 7.00 130° 10
1593673200 8.00 7.00 - 8.00 140° 10
1593676800 9.00 8.00 - 9.00 200° 15
1593680400 10.00 9.00 - 10.00
1593684000 11.00 10.00 - 11.00 180° 30
1593687600 12.00 11.00 - 12.00 210° 25
1593691200 13.00 12.00 - 13.00
1593694800 14.00 13.00 - 14.00 230° 10
1593698400 15.00 14.00 - 15.00 220° 15
1593702000 16.00 15.00 - 16.00
1593705600 17.00 16.00 - 17.00 230° 15
1593709200 18.00 17.00 - 18.00 220° 15
1593712800 19.00 18.00 - 19.00
1593716400 20.00 19.00 - 20.00 220° 15

Ihre Wetterstation

Fehlt Ihre Wetterstation auf unserem Portal?

Schreiben Sie an network@meteonews.ch